createdAt,value
2022-08-02T00:00:10.446Z,22.00
2022-08-02T00:02:37.208Z,22.00
2022-08-02T00:05:04.518Z,22.00
2022-08-02T00:07:31.275Z,22.00
2022-08-02T00:09:58.185Z,22.00
2022-08-02T00:12:26.639Z,22.00
2022-08-02T00:14:53.410Z,22.00
2022-08-02T00:17:20.234Z,22.00
2022-08-02T00:19:47.063Z,22.00
2022-08-02T00:22:14.385Z,22.00
2022-08-02T00:24:41.731Z,22.00
2022-08-02T00:27:09.455Z,21.90
2022-08-02T00:29:52.333Z,21.90
2022-08-02T00:32:20.027Z,21.90
2022-08-02T00:34:46.813Z,21.90
2022-08-02T00:37:13.696Z,21.90
2022-08-02T00:39:41.021Z,21.90
2022-08-02T00:42:08.703Z,21.90
2022-08-02T00:44:37.082Z,21.90
2022-08-02T00:47:03.981Z,21.90
2022-08-02T00:49:30.850Z,21.80
2022-08-02T00:52:00.314Z,21.80
2022-08-02T00:54:27.433Z,21.80
2022-08-02T00:56:54.216Z,21.80
2022-08-02T00:59:20.944Z,21.90
2022-08-02T01:01:56.937Z,21.80
2022-08-02T01:04:30.245Z,21.80
2022-08-02T01:06:59.537Z,21.80
2022-08-02T01:09:26.355Z,21.80
2022-08-02T01:11:53.767Z,21.70
2022-08-02T01:14:21.828Z,21.70
2022-08-02T01:16:58.253Z,21.70
2022-08-02T01:19:36.761Z,21.70
2022-08-02T01:23:06.689Z,21.70
2022-08-02T01:26:02.887Z,21.70
2022-08-02T01:28:37.787Z,21.70
2022-08-02T01:31:12.604Z,21.70
2022-08-02T01:33:44.123Z,21.70
2022-08-02T01:36:13.898Z,21.70
2022-08-02T01:38:44.800Z,21.70
2022-08-02T01:41:17.932Z,21.60
2022-08-02T01:43:47.893Z,21.60
2022-08-02T01:46:16.710Z,21.60
2022-08-02T01:48:45.423Z,21.60
2022-08-02T01:51:16.112Z,21.60
2022-08-02T01:53:45.431Z,21.60
2022-08-02T01:56:14.750Z,21.60
2022-08-02T01:58:43.721Z,21.60
2022-08-02T02:01:14.639Z,21.60
2022-08-02T02:03:46.458Z,21.60
2022-08-02T02:06:14.544Z,21.50
2022-08-02T02:08:43.528Z,21.50
2022-08-02T02:12:13.077Z,21.50
2022-08-02T02:13:58.845Z,21.50
2022-08-02T02:16:27.823Z,21.50
2022-08-02T02:18:55.103Z,21.50
2022-08-02T02:21:22.087Z,21.50
2022-08-02T02:23:50.126Z,21.50
2022-08-02T02:26:20.852Z,21.50
2022-08-02T02:28:59.816Z,21.50
2022-08-02T02:31:32.589Z,21.50
2022-08-02T02:34:02.881Z,21.40
2022-08-02T02:36:30.691Z,21.40
2022-08-02T02:38:59.542Z,21.40
2022-08-02T02:41:26.616Z,21.40
2022-08-02T02:43:55.434Z,21.40
2022-08-02T02:46:22.787Z,21.30
2022-08-02T02:48:52.055Z,21.30
2022-08-02T02:51:20.035Z,21.30
2022-08-02T02:54:30.778Z,21.30
2022-08-02T02:56:35.699Z,21.30
2022-08-02T02:59:03.022Z,21.30
2022-08-02T03:01:55.714Z,21.30
2022-08-02T03:04:18.618Z,21.30
2022-08-02T03:06:45.955Z,21.20
2022-08-02T03:09:12.948Z,21.20
2022-08-02T03:11:40.562Z,21.10
2022-08-02T03:14:11.264Z,21.20
2022-08-02T03:16:45.322Z,21.20
2022-08-02T03:19:12.066Z,21.20
2022-08-02T03:21:41.360Z,21.20
2022-08-02T03:24:08.829Z,21.10
2022-08-02T03:26:35.795Z,21.10
2022-08-02T03:29:10.131Z,21.10
2022-08-02T03:31:40.532Z,21.20
2022-08-02T03:34:07.580Z,21.10
2022-08-02T03:36:38.039Z,21.20
2022-08-02T03:39:10.792Z,21.20
2022-08-02T03:41:41.766Z,21.10
2022-08-02T03:44:11.566Z,21.20
2022-08-02T03:46:41.557Z,21.20
2022-08-02T03:49:09.071Z,21.20
2022-08-02T03:51:36.416Z,21.20
2022-08-02T03:54:04.254Z,21.10
2022-08-02T03:56:32.476Z,21.00
2022-08-02T03:59:07.125Z,21.00
2022-08-02T04:01:33.869Z,21.00
2022-08-02T04:04:00.655Z,21.10
2022-08-02T04:06:28.455Z,21.10
2022-08-02T04:08:55.465Z,21.00
2022-08-02T04:11:22.290Z,21.10
2022-08-02T04:13:50.577Z,21.10
2022-08-02T04:16:22.353Z,21.10
2022-08-02T04:18:54.302Z,21.10
2022-08-02T04:21:24.252Z,20.90
2022-08-02T04:23:51.745Z,20.90
2022-08-02T04:26:19.017Z,20.90
2022-08-02T04:28:55.647Z,20.80
2022-08-02T04:31:23.737Z,20.70
2022-08-02T04:33:50.881Z,20.70
2022-08-02T04:36:31.673Z,20.70
2022-08-02T04:38:58.857Z,20.80
2022-08-02T04:41:37.617Z,20.90
2022-08-02T04:44:09.432Z,20.80
2022-08-02T04:46:37.093Z,20.80
2022-08-02T04:49:04.796Z,20.70
2022-08-02T04:51:38.572Z,20.70
2022-08-02T04:54:09.812Z,20.70
2022-08-02T04:56:37.184Z,20.80
2022-08-02T04:59:03.999Z,20.80
2022-08-02T05:01:33.046Z,20.80
2022-08-02T05:04:01.958Z,20.70
2022-08-02T05:06:28.797Z,20.70
2022-08-02T05:08:55.557Z,20.70
2022-08-02T05:11:23.075Z,20.70
2022-08-02T05:14:01.722Z,20.70
2022-08-02T05:16:30.736Z,20.70
2022-08-02T05:19:00.146Z,20.70
2022-08-02T05:21:26.989Z,20.70
2022-08-02T05:23:53.752Z,20.70
2022-08-02T05:26:20.586Z,20.70
2022-08-02T05:28:47.330Z,20.70
2022-08-02T05:31:14.076Z,20.70
2022-08-02T05:33:40.839Z,20.80
2022-08-02T05:36:09.061Z,20.90
2022-08-02T05:38:36.983Z,20.90
2022-08-02T05:41:04.405Z,20.90
2022-08-02T05:43:32.589Z,21.00
2022-08-02T05:45:59.589Z,21.00
2022-08-02T05:48:31.104Z,21.00
2022-08-02T05:51:05.415Z,21.00
2022-08-02T05:53:38.053Z,21.10
2022-08-02T05:56:24.095Z,21.10
2022-08-02T05:58:55.149Z,21.10
2022-08-02T06:01:28.020Z,21.10
2022-08-02T06:03:57.412Z,21.10
2022-08-02T06:06:26.055Z,21.10
2022-08-02T06:08:58.701Z,21.10
2022-08-02T06:11:35.218Z,21.10
2022-08-02T06:14:03.892Z,21.10
2022-08-02T06:16:32.601Z,21.20
2022-08-02T06:19:01.095Z,21.20
2022-08-02T06:22:34.994Z,21.20
2022-08-02T06:24:18.741Z,21.30
2022-08-02T06:26:46.622Z,21.30
2022-08-02T06:29:14.165Z,21.30
2022-08-02T06:31:41.435Z,21.30
2022-08-02T06:34:12.024Z,21.30
2022-08-02T06:36:52.002Z,21.40
2022-08-02T06:39:24.680Z,21.40
2022-08-02T06:41:54.742Z,21.40
2022-08-02T06:44:47.680Z,21.50
2022-08-02T06:47:11.041Z,21.50
2022-08-02T06:49:53.012Z,21.50
2022-08-02T06:52:29.669Z,21.60
2022-08-02T06:54:59.773Z,21.60
2022-08-02T06:57:26.834Z,21.60
2022-08-02T06:59:53.629Z,21.70
2022-08-02T07:02:20.736Z,21.70
2022-08-02T07:04:47.551Z,21.80
2022-08-02T07:07:14.510Z,21.90
2022-08-02T07:09:56.921Z,21.90
2022-08-02T07:12:31.655Z,22.00
2022-08-02T07:14:59.210Z,22.00
2022-08-02T07:17:26.229Z,22.00
2022-08-02T07:19:53.124Z,22.10
2022-08-02T07:22:19.886Z,22.20
2022-08-02T07:24:46.622Z,22.20
2022-08-02T07:27:13.819Z,22.30
2022-08-02T07:29:46.020Z,22.30
2022-08-02T07:32:14.341Z,22.40
2022-08-02T07:34:42.453Z,22.40
2022-08-02T07:37:17.649Z,22.40
2022-08-02T07:39:57.229Z,22.50
2022-08-02T07:42:25.167Z,22.50
2022-08-02T07:44:53.269Z,22.50
2022-08-02T07:47:20.074Z,22.60
2022-08-02T07:49:46.903Z,22.60
2022-08-02T07:52:14.203Z,22.60
2022-08-02T07:54:41.266Z,22.60
2022-08-02T07:57:08.206Z,22.70
2022-08-02T07:59:38.015Z,22.70
2022-08-02T08:02:08.368Z,22.70
2022-08-02T08:04:35.476Z,22.70
2022-08-02T08:07:02.234Z,22.70
2022-08-02T08:09:28.952Z,22.80
2022-08-02T08:11:55.669Z,22.80
2022-08-02T08:14:22.485Z,22.80
2022-08-02T08:16:49.228Z,22.80
2022-08-02T08:19:17.290Z,22.80
2022-08-02T08:21:44.063Z,22.90
2022-08-02T08:24:10.895Z,22.90
2022-08-02T08:40:35.387Z,23.00
2022-08-02T08:43:02.151Z,23.00
2022-08-02T08:45:29.058Z,23.10
2022-08-02T08:48:01.304Z,23.10
2022-08-02T08:50:32.202Z,23.10
2022-08-02T08:53:03.783Z,23.10
2022-08-02T08:55:32.327Z,23.10
2022-08-02T08:58:01.829Z,23.20
2022-08-02T09:00:30.424Z,23.20
2022-08-02T09:02:57.599Z,23.20
2022-08-02T09:05:25.014Z,23.30
2022-08-02T09:07:53.033Z,23.30
2022-08-02T09:10:34.261Z,23.40
2022-08-02T09:13:38.535Z,23.40
2022-08-02T09:15:56.616Z,23.40
2022-08-02T09:18:30.339Z,23.40
2022-08-02T09:21:01.621Z,23.50
2022-08-02T09:23:35.025Z,23.50
2022-08-02T09:26:07.257Z,23.50
2022-08-02T09:28:38.282Z,23.50
2022-08-02T09:31:07.162Z,23.60
2022-08-02T09:33:34.597Z,23.60
2022-08-02T09:36:05.458Z,23.60
2022-08-02T09:38:35.797Z,23.60
2022-08-02T09:41:03.700Z,23.60
2022-08-02T09:43:51.995Z,23.70
2022-08-02T09:46:31.243Z,23.80
2022-08-02T09:49:00.246Z,23.80
2022-08-02T09:51:29.001Z,23.80
2022-08-02T09:54:07.925Z,23.80
2022-08-02T09:56:46.569Z,23.90
2022-08-02T09:59:15.351Z,23.80
2022-08-02T10:01:51.266Z,23.90
2022-08-02T10:04:30.752Z,23.90
2022-08-02T10:06:58.530Z,24.00
2022-08-02T10:09:26.185Z,24.00
2022-08-02T10:11:53.216Z,24.00
2022-08-02T10:14:21.501Z,24.00
2022-08-02T10:16:48.301Z,24.00
2022-08-02T10:19:16.541Z,24.10
2022-08-02T10:21:46.889Z,24.10
2022-08-02T10:24:15.975Z,24.20
2022-08-02T10:26:46.048Z,24.20
2022-08-02T10:29:17.089Z,24.20
2022-08-02T10:31:56.047Z,24.20
2022-08-02T10:34:31.551Z,24.20
2022-08-02T10:37:02.296Z,24.30
2022-08-02T10:39:37.643Z,24.30
2022-08-02T10:42:04.555Z,24.40
2022-08-02T10:44:33.161Z,24.40
2022-08-02T10:47:23.669Z,24.40
2022-08-02T10:49:52.771Z,24.40
2022-08-02T10:52:20.554Z,24.40
2022-08-02T10:54:56.403Z,24.50
2022-08-02T10:57:25.386Z,24.50
2022-08-02T10:59:55.694Z,24.40
2022-08-02T11:02:42.700Z,24.40
2022-08-02T11:05:15.131Z,24.40
2022-08-02T11:07:47.543Z,24.40
2022-08-02T11:10:35.583Z,24.40
2022-08-02T11:13:08.139Z,24.40
2022-08-02T11:15:55.435Z,24.40
2022-08-02T11:19:06.809Z,24.40
2022-08-02T11:21:34.891Z,24.40
2022-08-02T11:24:24.954Z,24.40
2022-08-02T11:26:52.369Z,24.50
2022-08-02T11:29:19.717Z,24.50
2022-08-02T11:31:47.385Z,24.50
2022-08-02T11:34:36.658Z,24.50
2022-08-02T11:37:03.776Z,24.60
2022-08-02T11:39:30.514Z,24.60
2022-08-02T11:41:59.415Z,24.60
2022-08-02T11:44:27.527Z,24.60
2022-08-02T11:46:55.570Z,24.60
2022-08-02T11:49:23.783Z,24.70
2022-08-02T11:51:55.922Z,24.70
2022-08-02T11:54:24.378Z,24.70
2022-08-02T11:56:51.120Z,24.70
2022-08-02T11:59:17.900Z,24.80
2022-08-02T12:01:46.399Z,24.80
2022-08-02T12:04:18.226Z,24.90
2022-08-02T12:06:54.501Z,24.90
2022-08-02T12:09:23.138Z,24.90
2022-08-02T12:11:50.540Z,24.90
2022-08-02T12:14:20.643Z,24.90
2022-08-02T12:16:51.487Z,25.00
2022-08-02T12:19:20.970Z,25.00
2022-08-02T12:21:52.087Z,25.00
2022-08-02T12:24:28.654Z,25.00
2022-08-02T12:26:55.480Z,25.00
2022-08-02T12:29:58.290Z,25.00
2022-08-02T12:32:23.572Z,25.00
2022-08-02T12:35:01.936Z,25.00
2022-08-02T12:37:30.187Z,25.10
2022-08-02T12:39:56.934Z,25.00
2022-08-02T12:42:23.701Z,25.10
2022-08-02T12:44:51.751Z,25.10
2022-08-02T12:47:19.026Z,25.00
2022-08-02T12:50:03.343Z,25.00
2022-08-02T12:52:31.592Z,25.10
2022-08-02T12:54:58.313Z,25.10
2022-08-02T12:57:25.102Z,25.10
2022-08-02T12:59:53.709Z,25.10
2022-08-02T13:02:21.172Z,25.10
2022-08-02T13:04:50.087Z,25.10
2022-08-02T13:07:17.737Z,25.20
2022-08-02T13:09:46.166Z,25.10
2022-08-02T13:12:13.361Z,25.20
2022-08-02T13:14:41.879Z,25.20
2022-08-02T13:17:09.551Z,25.20
2022-08-02T13:19:36.517Z,25.20
2022-08-02T13:22:04.166Z,25.20
2022-08-02T13:24:38.556Z,25.30
2022-08-02T13:27:10.089Z,25.30
2022-08-02T13:29:36.935Z,25.30
2022-08-02T13:32:03.756Z,25.20
2022-08-02T13:34:30.535Z,25.30
2022-08-02T13:36:57.380Z,25.30
2022-08-02T13:39:24.125Z,25.30
2022-08-02T13:41:50.870Z,25.30
2022-08-02T13:44:19.095Z,25.30
2022-08-02T13:46:46.314Z,25.30
2022-08-02T13:49:18.333Z,25.30
2022-08-02T13:51:49.042Z,25.30
2022-08-02T13:54:16.059Z,25.30
2022-08-02T13:56:43.297Z,25.40
2022-08-02T13:59:54.087Z,25.40
2022-08-02T14:01:59.211Z,25.40
2022-08-02T14:04:27.267Z,25.50
2022-08-02T14:06:54.611Z,25.50
2022-08-02T14:09:25.742Z,25.50
2022-08-02T14:11:52.563Z,25.50
2022-08-02T14:14:19.328Z,25.50
2022-08-02T14:16:46.131Z,25.50
2022-08-02T14:19:15.638Z,25.60
2022-08-02T14:21:46.706Z,25.60
2022-08-02T14:24:15.024Z,25.60
2022-08-02T14:26:41.801Z,25.60
2022-08-02T14:29:08.551Z,25.60
2022-08-02T14:31:38.941Z,25.70
2022-08-02T14:34:08.704Z,25.70
2022-08-02T14:36:38.431Z,25.70
2022-08-02T14:39:05.424Z,25.70
2022-08-02T14:41:32.453Z,25.70
2022-08-02T14:43:59.364Z,25.70
2022-08-02T14:46:26.757Z,25.80
2022-08-02T14:48:54.351Z,25.80
2022-08-02T14:51:21.231Z,25.80
2022-08-02T14:54:02.774Z,25.90
2022-08-02T14:56:31.300Z,25.90
2022-08-02T14:58:58.396Z,26.00
2022-08-02T15:01:26.167Z,26.00
2022-08-02T15:03:53.665Z,26.00
2022-08-02T15:06:20.793Z,26.00
2022-08-02T15:08:49.071Z,26.00
2022-08-02T15:11:15.942Z,26.00
2022-08-02T15:13:42.946Z,26.10
2022-08-02T15:16:09.929Z,26.10
2022-08-02T15:18:36.810Z,26.10
2022-08-02T15:21:08.051Z,26.20
2022-08-02T15:23:51.923Z,26.10
2022-08-02T15:26:18.672Z,26.20
2022-08-02T15:28:45.475Z,26.20
2022-08-02T15:31:32.781Z,26.10
2022-08-02T15:33:59.007Z,26.10
2022-08-02T15:36:25.748Z,26.20
2022-08-02T15:38:53.835Z,26.20
2022-08-02T15:41:22.377Z,26.20
2022-08-02T15:44:01.170Z,26.20
2022-08-02T15:46:32.097Z,26.20
2022-08-02T15:48:59.755Z,26.30
2022-08-02T15:51:26.925Z,26.30
2022-08-02T15:53:55.001Z,26.30
2022-08-02T15:56:21.940Z,26.30
2022-08-02T15:58:52.948Z,26.40
2022-08-02T16:01:22.935Z,26.40
2022-08-02T16:03:49.746Z,26.40
2022-08-02T16:06:16.503Z,26.40
2022-08-02T16:08:53.302Z,26.50
2022-08-02T16:11:22.677Z,26.50
2022-08-02T16:13:52.736Z,26.50
2022-08-02T16:16:22.478Z,26.50
2022-08-02T16:18:49.765Z,26.50
2022-08-02T16:21:16.705Z,26.50
2022-08-02T16:24:02.047Z,26.50
2022-08-02T16:26:32.385Z,26.50
2022-08-02T16:29:00.261Z,26.50
2022-08-02T16:31:27.421Z,26.40
2022-08-02T16:33:56.416Z,26.50
2022-08-02T16:36:24.596Z,26.40
2022-08-02T16:38:51.934Z,26.40
2022-08-02T16:41:18.882Z,26.40
2022-08-02T16:43:46.990Z,26.40
2022-08-02T16:46:13.726Z,26.40
2022-08-02T16:48:41.054Z,26.40
2022-08-02T16:51:13.421Z,26.40
2022-08-02T16:54:00.386Z,26.30
2022-08-02T16:56:27.955Z,26.30
2022-08-02T16:58:59.384Z,26.30
2022-08-02T17:01:27.892Z,26.30
2022-08-02T17:04:14.052Z,26.30
2022-08-02T17:06:47.795Z,26.30
2022-08-02T17:10:03.734Z,26.30
2022-08-02T17:12:13.492Z,26.30
2022-08-02T17:14:55.548Z,26.30
2022-08-02T17:17:33.912Z,26.30
2022-08-02T17:20:01.686Z,26.30
2022-08-02T17:22:28.538Z,26.30
2022-08-02T17:24:55.366Z,26.30
2022-08-02T17:27:22.202Z,26.30
2022-08-02T17:29:50.246Z,26.30
2022-08-02T17:32:18.491Z,26.30
2022-08-02T17:34:56.694Z,26.30
2022-08-02T17:37:26.913Z,26.30
2022-08-02T17:39:55.339Z,26.30
2022-08-02T17:42:23.059Z,26.30
2022-08-02T17:44:52.692Z,26.30
2022-08-02T17:47:20.186Z,26.20
2022-08-02T17:49:48.377Z,26.30
2022-08-02T17:52:50.720Z,26.20
2022-08-02T17:55:03.432Z,26.20
2022-08-02T18:00:31.569Z,26.20
2022-08-02T18:03:01.255Z,26.20
2022-08-02T18:05:39.756Z,26.10
2022-08-02T18:08:21.677Z,26.10
2022-08-02T18:10:50.889Z,26.10
2022-08-02T18:13:18.405Z,26.10
2022-08-02T18:15:47.207Z,26.10
2022-08-02T18:18:15.476Z,26.10
2022-08-02T18:20:42.959Z,26.10
2022-08-02T18:23:13.832Z,26.10
2022-08-02T18:25:47.687Z,26.10
2022-08-02T18:28:16.748Z,26.00
2022-08-02T18:30:50.430Z,26.00
2022-08-02T18:33:59.555Z,26.00
2022-08-02T18:36:06.287Z,26.00
2022-08-02T18:38:33.321Z,26.00
2022-08-02T18:41:05.287Z,26.00
2022-08-02T18:43:43.696Z,25.90
2022-08-02T18:46:15.839Z,25.90
2022-08-02T18:48:46.503Z,25.80
2022-08-02T18:51:14.720Z,25.80
2022-08-02T18:53:43.065Z,25.80
2022-08-02T18:56:19.856Z,25.70
2022-08-02T18:58:51.761Z,25.70
2022-08-02T19:04:08.698Z,25.70
2022-08-02T19:06:36.065Z,25.60
2022-08-02T19:09:10.376Z,25.60
2022-08-02T19:11:38.439Z,25.60
2022-08-02T19:14:08.012Z,25.60
2022-08-02T19:16:37.826Z,25.50
2022-08-02T19:19:05.238Z,25.50
2022-08-02T19:22:17.710Z,25.50
2022-08-02T19:24:19.048Z,25.40
2022-08-02T19:26:52.088Z,25.30
2022-08-02T19:29:42.108Z,25.30
2022-08-02T19:32:40.763Z,25.30
2022-08-02T19:34:55.135Z,25.20
2022-08-02T19:37:21.927Z,25.10
2022-08-02T19:39:48.637Z,25.10
2022-08-02T19:42:17.113Z,25.20
2022-08-02T19:44:45.904Z,25.10
2022-08-02T19:47:19.469Z,25.10
2022-08-02T19:49:49.090Z,25.00
2022-08-02T19:52:21.398Z,24.90
2022-08-02T19:54:55.482Z,25.00
2022-08-02T19:57:25.126Z,24.90
2022-08-02T19:59:52.133Z,24.90
2022-08-02T20:02:20.237Z,24.80
2022-08-02T20:04:50.110Z,24.80
2022-08-02T20:07:55.028Z,24.70
2022-08-02T20:10:24.765Z,24.70
2022-08-02T20:12:51.835Z,24.60
2022-08-02T20:15:18.580Z,24.70
2022-08-02T20:17:47.472Z,24.70
2022-08-02T20:20:16.624Z,24.70
2022-08-02T20:22:43.586Z,24.70
2022-08-02T20:25:10.739Z,24.60
2022-08-02T20:30:29.592Z,24.40
2022-08-02T20:33:20.806Z,24.40
2022-08-02T20:35:44.467Z,24.40
2022-08-02T20:38:12.059Z,24.30
2022-08-02T20:40:38.991Z,24.30
2022-08-02T20:43:07.651Z,24.20
2022-08-02T20:45:34.559Z,24.20
2022-08-02T20:48:05.128Z,24.20
2022-08-02T20:50:33.942Z,24.20
2022-08-02T20:53:01.284Z,24.20
2022-08-02T20:55:30.819Z,24.10
2022-08-02T20:58:00.938Z,24.00
2022-08-02T21:00:28.874Z,24.00
2022-08-02T21:02:55.697Z,24.00
2022-08-02T21:05:26.547Z,24.00
2022-08-02T21:07:55.035Z,24.00
2022-08-02T21:10:22.109Z,24.00
2022-08-02T21:12:50.857Z,23.90
2022-08-02T21:15:17.854Z,23.90
2022-08-02T21:17:51.520Z,23.80
2022-08-02T21:20:29.475Z,23.80
2022-08-02T21:22:56.402Z,23.80
2022-08-02T21:25:24.001Z,23.70
2022-08-02T21:28:09.679Z,23.70
2022-08-02T21:30:44.419Z,23.70
2022-08-02T21:33:17.932Z,23.60
2022-08-02T21:35:51.571Z,23.60
2022-08-02T21:38:35.425Z,23.60
2022-08-02T21:41:03.706Z,23.60
2022-08-02T21:43:38.372Z,23.60
2022-08-02T21:46:05.684Z,23.50
2022-08-02T21:48:32.501Z,23.50
2022-08-02T21:51:00.569Z,23.50
2022-08-02T21:53:41.990Z,23.40
2022-08-02T21:56:10.017Z,23.40
2022-08-02T21:58:36.796Z,23.40
2022-08-02T22:01:04.034Z,23.40
2022-08-02T22:03:31.415Z,23.30
2022-08-02T22:06:00.987Z,23.30
2022-08-02T22:08:27.841Z,23.30
2022-08-02T22:10:54.674Z,23.30
2022-08-02T22:13:21.640Z,23.30
2022-08-02T22:15:48.550Z,23.30
2022-08-02T22:18:21.266Z,23.20
2022-08-02T22:20:56.251Z,23.30
2022-08-02T22:23:38.859Z,23.20
2022-08-02T22:26:12.484Z,23.20
2022-08-02T22:28:51.077Z,23.10
2022-08-02T22:31:19.690Z,23.20
2022-08-02T22:34:26.697Z,23.10
2022-08-02T22:36:53.205Z,23.00
2022-08-02T22:39:21.397Z,23.00
2022-08-02T22:42:05.223Z,23.00
2022-08-02T22:44:34.172Z,23.00
2022-08-02T22:47:13.747Z,23.00
2022-08-02T22:49:51.594Z,23.00
2022-08-02T22:52:21.673Z,22.90
2022-08-02T22:54:51.015Z,22.90
2022-08-02T22:58:46.603Z,25.70
2022-08-02T22:59:05.371Z,24.50
2022-08-02T22:59:10.146Z,22.80
2022-08-02T23:00:06.317Z,22.80
2022-08-02T23:02:33.221Z,22.80
2022-08-02T23:05:00.059Z,22.80
2022-08-02T23:07:27.292Z,22.70
2022-08-02T23:09:55.627Z,22.60
2022-08-02T23:12:22.654Z,22.60
2022-08-02T23:14:50.934Z,22.50
2022-08-02T23:17:18.038Z,22.50
2022-08-02T23:19:44.866Z,22.50
2022-08-02T23:22:11.648Z,22.40
2022-08-02T23:24:38.463Z,22.40
2022-08-02T23:27:06.841Z,22.40
2022-08-02T23:29:33.667Z,22.40
2022-08-02T23:32:00.714Z,22.40
2022-08-02T23:34:27.577Z,22.50
2022-08-02T23:36:54.300Z,22.50
2022-08-02T23:39:21.066Z,22.50
2022-08-02T23:41:54.643Z,22.50
2022-08-02T23:44:24.308Z,22.50
2022-08-02T23:46:51.477Z,22.40
2022-08-02T23:49:18.541Z,22.30
2022-08-02T23:51:45.822Z,22.20
2022-08-02T23:54:12.874Z,22.30
2022-08-02T23:56:40.353Z,22.30
2022-08-02T23:59:08.034Z,22.20
